Air Navigation Services of Czech Republic
Airport: LKKB Updated:  22.05.2019 02:00:26  UTC
 METAR LKKB 22.05. 02:00 ...
METAR LKKB 220200Z 29012KT 9999 -RA OVC025 14/12 Q1008 NOSIG RMK BLU=
 TAF LKKB 21.05. 23:00 ...
TAF LKKB 212300Z 2200/2300 28008KT 9999 SCT035      BECMG 2200/2202 30015KT 7000 RA BKN017 OVC025      TEMPO 2200/2300 30018G30KT      TEMPO 2201/2212 4000 RA BKN010 OVC015      BECMG 2222/2300 CAVOK=